^^
Station Historical Data
 
Daily Summary for September 29, 2016 Units:  English    Metric   Both
« Previous Day
Next Day »
Daily Weekly Monthly Yearly Custom
  Current: High: Low: Average:
Temperature: 79.9 °F 79.9 °F 71.6 °F 73.6 °F
Dew Point: 74.6 °F 74.6 °F 70.1 °F 71.5 °F
Humidity: 84% 96% 84% 93%
Wind Speed: 5.0mph 8.1mph 0.0mph 0.8mph
Wind Gust: 5.0mph 8.1mph - -
WindSSW - - SW
Pressure: 30.00 in 30.00 in 29.95 in -
Precipitation: 0.01 in      
Historical Graphs
 
 
Tabular Data for September 29, 2016
Time Temperature Dew Point Pressure Wind Wind Speed Wind Gust Humidity Rainfall Rate (Hourly) solar Conditions
00:04 75.2 °F 72.1 °F 30.00 in Calm     90% 0.00 in 0.0 W/m2 CLR
00:09 75.1 °F 72.3 °F 30.00 in Calm     91% 0.00 in 0.0 W/m2 CLR
00:14 75.1 °F 72.3 °F 30.00 in Calm     91% 0.00 in 0.0 W/m2 CLR
00:19 75.1 °F 72.3 °F 30.00 in Calm     91% 0.00 in 0.0 W/m2 CLR
00:24 75.1 °F 72.3 °F 30.00 in Calm     91% 0.00 in 0.0 W/m2 CLR
00:29 75.1 °F 72.3 °F 30.00 in SSW 1.2 mph   91% 0.00 in 0.0 W/m2 CLR
00:34 75.0 °F 72.5 °F 30.00 in Calm     92% 0.00 in 0.0 W/m2 CLR
00:39 75.0 °F 72.5 °F 30.00 in SW 1.2 mph 1.2 mph 92% 0.00 in 0.0 W/m2 CLR
00:44 75.0 °F 72.5 °F 29.99 in Calm     92% 0.00 in 0.0 W/m2 CLR
00:49 75.0 °F 72.5 °F 30.00 in SE 1.2 mph   92% 0.00 in 0.0 W/m2 CLR
00:54 75.0 °F 72.5 °F 30.00 in Calm     92% 0.00 in 0.0 W/m2 CLR
00:59 74.9 °F 72.4 °F 29.99 in Calm     92% 0.00 in 0.0 W/m2 CLR
01:04 74.8 °F 72.3 °F 29.99 in Calm     92% 0.00 in 0.0 W/m2 CLR
01:09 74.7 °F 72.2 °F 29.99 in Calm     92% 0.00 in 0.0 W/m2 CLR
01:14 74.7 °F 72.5 °F 29.99 in Calm     93% 0.00 in 0.0 W/m2 CLR
01:19 74.6 °F 72.1 °F 29.99 in Calm     92% 0.00 in 0.0 W/m2 CLR
01:24 74.5 °F 72.0 °F 29.99 in Calm     92% 0.00 in 0.0 W/m2 CLR
01:29 74.3 °F 72.1 °F 29.99 in Calm     93% 0.00 in 0.0 W/m2 CLR
01:34 74.2 °F 72.0 °F 29.99 in Calm     93% 0.00 in 0.0 W/m2 CLR
01:39 74.0 °F 71.8 °F 29.98 in Calm     93% 0.00 in 0.0 W/m2 CLR
01:44 74.0 °F 71.8 °F 29.98 in Calm     93% 0.00 in 0.0 W/m2 CLR
01:49 73.8 °F 71.6 °F 29.99 in Calm     93% 0.00 in 0.0 W/m2 CLR
01:54 73.7 °F 71.5 °F 29.98 in Calm     93% 0.00 in 0.0 W/m2 CLR
01:59 73.5 °F 71.4 °F 29.98 in Calm     93% 0.00 in 0.0 W/m2 CLR
02:04 73.4 °F 71.3 °F 29.98 in SSW 1.0 mph   93% 0.00 in 0.0 W/m2 CLR
02:09 73.4 °F 71.3 °F 29.98 in SW 1.2 mph   93% 0.00 in 0.0 W/m2 CLR
02:14 73.4 °F 71.3 °F 29.98 in Calm     93% 0.00 in 0.0 W/m2 CLR
02:19 73.3 °F 71.2 °F 29.98 in Calm     93% 0.00 in 0.0 W/m2 CLR
02:24 73.3 °F 71.2 °F 29.98 in Calm     93% 0.00 in 0.0 W/m2 CLR
02:29 73.2 °F 71.1 °F 29.98 in Calm     93% 0.00 in 0.0 W/m2 CLR
02:34 73.1 °F 71.3 °F 29.98 in Calm     94% 0.00 in 0.0 W/m2 CLR
02:39 73.1 °F 71.3 °F 29.98 in Calm     94% 0.00 in 0.0 W/m2 CLR
02:44 73.0 °F 71.2 °F 29.98 in Calm     94% 0.00 in 0.0 W/m2 CLR
02:49 73.1 °F 71.3 °F 29.97 in Calm     94% 0.00 in 0.0 W/m2 CLR
02:54 73.1 °F 71.3 °F 29.97 in Calm     94% 0.00 in 0.0 W/m2 CLR
02:59 73.0 °F 71.2 °F 29.97 in Calm     94% 0.00 in 0.0 W/m2 CLR
03:04 72.8 °F 71.0 °F 29.97 in Calm     94% 0.00 in 0.0 W/m2 CLR
03:09 72.9 °F 71.1 °F 29.97 in SSW 1.2 mph 1.2 mph 94% 0.00 in 0.0 W/m2 CLR
03:14 73.0 °F 71.2 °F 29.97 in Calm     94% 0.00 in 0.0 W/m2 CLR
03:19 73.0 °F 71.2 °F 29.97 in Calm     94% 0.00 in 0.0 W/m2 CLR
03:24 73.0 °F 71.2 °F 29.96 in SW 1.2 mph 1.2 mph 94% 0.00 in 0.0 W/m2 CLR
03:29 73.0 °F 71.2 °F 29.96 in WSW 1.2 mph   94% 0.00 in 0.0 W/m2 CLR
03:34 73.1 °F 71.3 °F 29.96 in Calm     94% 0.00 in 0.0 W/m2 CLR
03:39 73.1 °F 71.3 °F 29.96 in Calm     94% 0.00 in 0.0 W/m2 CLR
03:44 73.1 °F 71.3 °F 29.96 in SW 1.2 mph   94% 0.00 in 0.0 W/m2 CLR
03:49 72.9 °F 71.1 °F 29.96 in Calm     94% 0.00 in 0.0 W/m2 CLR
03:54 72.8 °F 71.0 °F 29.96 in Calm     94% 0.00 in 0.0 W/m2 CLR
03:59 72.8 °F 71.0 °F 29.96 in Calm     94% 0.00 in 0.0 W/m2 CLR
04:04 72.8 °F 71.0 °F 29.96 in SSW 1.2 mph 1.2 mph 94% 0.00 in 0.0 W/m2 CLR
04:09 72.8 °F 71.0 °F 29.96 in SSW 2.3 mph 2.3 mph 94% 0.00 in 0.0 W/m2 CLR
04:14 72.8 °F 71.0 °F 29.96 in SSW 1.2 mph   94% 0.00 in 0.0 W/m2 CLR
04:24 72.7 °F 70.9 °F 29.96 in Calm     94% 0.00 in 0.0 W/m2 CLR
04:29 72.7 °F 70.9 °F 29.96 in Calm     94% 0.00 in 0.0 W/m2 CLR
04:34 72.7 °F 70.9 °F 29.96 in Calm     94% 0.00 in 0.0 W/m2 CLR
04:39 72.7 °F 70.9 °F 29.96 in Calm     94% 0.00 in 0.0 W/m2 CLR
04:44 72.7 °F 70.9 °F 29.96 in Calm     94% 0.00 in 0.0 W/m2 CLR
04:49 72.6 °F 70.8 °F 29.96 in Calm     94% 0.00 in 0.0 W/m2 CLR
04:54 72.6 °F 70.8 °F 29.96 in Calm     94% 0.00 in 0.0 W/m2 CLR
04:59 72.6 °F 70.8 °F 29.96 in Calm     94% 0.00 in 0.0 W/m2 CLR
05:04 72.6 °F 70.8 °F 29.95 in Calm     94% 0.00 in 0.0 W/m2 CLR
05:09 72.5 °F 71.0 °F 29.95 in Calm     95% 0.00 in 0.0 W/m2 CLR
05:14 72.4 °F 70.9 °F 29.96 in Calm     95% 0.00 in 0.0 W/m2 CLR
05:19 72.4 °F 70.9 °F 29.96 in Calm     95% 0.00 in 0.0 W/m2 CLR
05:24 72.3 °F 70.8 °F 29.96 in Calm     95% 0.00 in 0.0 W/m2 CLR
05:29 72.2 °F 70.7 °F 29.96 in Calm     95% 0.01 in 0.0 W/m2 RA
05:34 72.0 °F 70.5 °F 29.96 in Calm     95% 0.01 in 0.0 W/m2 RA
05:39 71.9 °F 70.4 °F 29.96 in Calm     95% 0.01 in 0.0 W/m2 CLR
05:44 71.9 °F 70.4 °F 29.96 in Calm     95% 0.01 in 0.0 W/m2 CLR
05:49 71.8 °F 70.3 °F 29.96 in Calm     95% 0.01 in 0.0 W/m2 CLR
05:54 71.7 °F 70.2 °F 29.96 in Calm     95% 0.01 in 0.0 W/m2 CLR
05:59 71.7 °F 70.2 °F 29.96 in Calm     95% 0.01 in 0.0 W/m2 CLR
06:04 71.8 °F 70.3 °F 29.96 in Calm     95% 0.01 in 0.0 W/m2 CLR
06:09 71.7 °F 70.2 °F 29.97 in Calm     95% 0.01 in 0.0 W/m2 CLR
06:14 71.7 °F 70.2 °F 29.97 in Calm     95% 0.01 in 0.0 W/m2 CLR
06:19 71.6 °F 70.1 °F 29.97 in Calm     95% 0.01 in 0.0 W/m2 CLR
06:24 71.7 °F 70.5 °F 29.97 in Calm     96% 0.01 in 0.0 W/m2 CLR
06:29 71.8 °F 70.6 °F 29.97 in Calm     96% 0.00 in 0.0 W/m2 CLR
06:34 71.8 °F 70.3 °F 29.97 in Calm     95% 0.00 in 0.0 W/m2 CLR
06:39 71.7 °F 70.2 °F 29.97 in Calm     95% 0.00 in 0.0 W/m2 CLR
06:44 71.7 °F 70.5 °F 29.97 in Calm     96% 0.00 in 0.0 W/m2 CLR
06:49 71.9 °F 70.7 °F 29.97 in SSW 1.2 mph   96% 0.00 in 0.0 W/m2 CLR
06:54 71.9 °F 70.7 °F 29.97 in Calm     96% 0.00 in 0.0 W/m2 CLR
06:59 72.0 °F 70.8 °F 29.97 in Calm     96% 0.00 in 0.0 W/m2 CLR
07:04 72.1 °F 70.9 °F 29.98 in SW 1.2 mph   96% 0.00 in 0.0 W/m2 CLR
07:09 72.1 °F 70.9 °F 29.98 in SSW 1.2 mph 1.2 mph 96% 0.00 in 0.0 W/m2 CLR
07:14 72.1 °F 70.6 °F 29.97 in Calm     95% 0.00 in 0.0 W/m2 CLR
07:19 72.1 °F 70.6 °F 29.97 in Calm     95% 0.00 in 0.0 W/m2 CLR
07:24 72.1 °F 70.6 °F 29.97 in Calm     95% 0.00 in 0.0 W/m2 CLR
07:29 72.2 °F 70.7 °F 29.98 in Calm     95% 0.00 in 0.0 W/m2 CLR
07:34 72.3 °F 70.8 °F 29.98 in SW 1.0 mph 1.0 mph 95% 0.00 in 0.0 W/m2 CLR
07:39 72.4 °F 70.9 °F 29.98 in SW 1.2 mph 1.2 mph 95% 0.00 in 0.0 W/m2 CLR
07:44 72.5 °F 71.0 °F 29.98 in SW 1.2 mph 1.2 mph 95% 0.00 in 0.0 W/m2 CLR
07:49 72.7 °F 71.2 °F 29.98 in South 1.2 mph 1.2 mph 95% 0.00 in 0.0 W/m2 CLR
07:59 73.4 °F 71.9 °F 29.98 in South 2.3 mph 2.3 mph 95% 0.00 in 0.0 W/m2 CLR
08:04 73.8 °F 72.3 °F 29.98 in SSW 1.2 mph 1.2 mph 95% 0.00 in 0.0 W/m2 CLR
08:09 74.1 °F 72.6 °F 29.98 in SSW 2.3 mph 2.3 mph 95% 0.00 in 0.0 W/m2 CLR
08:14 74.5 °F 72.7 °F 29.98 in SSW 3.5 mph 3.5 mph 94% 0.00 in 0.0 W/m2 CLR
08:19 74.9 °F 72.7 °F 29.99 in SW 5.8 mph 5.8 mph 93% 0.00 in 0.0 W/m2 CLR
08:24 75.5 °F 73.3 °F 29.99 in SE 1.2 mph   93% 0.00 in 0.0 W/m2 CLR
08:29 76.0 °F 73.5 °F 29.99 in South 2.3 mph 2.3 mph 92% 0.00 in 0.0 W/m2 CLR
08:34 76.3 °F 73.5 °F 29.99 in SSW 3.5 mph 3.5 mph 91% 0.00 in 0.0 W/m2 CLR
08:39 76.8 °F 73.6 °F 30.00 in SW 3.5 mph 3.5 mph 90% 0.00 in 0.0 W/m2 CLR
08:44 77.1 °F 73.6 °F 30.00 in SW 2.0 mph 2.0 mph 89% 0.00 in 0.0 W/m2 CLR
08:54 77.8 °F 73.6 °F 30.00 in WNW 3.5 mph 3.5 mph 87% 0.00 in 0.0 W/m2 CLR
08:59 78.2 °F 74.0 °F 30.00 in WSW 2.3 mph 2.3 mph 87% 0.00 in 0.0 W/m2 CLR
09:04 78.3 °F 73.8 °F 30.00 in SSW 8.1 mph 8.1 mph 86% 0.00 in 0.0 W/m2 CLR
09:09 78.6 °F 74.1 °F 30.00 in WNW 3.5 mph 3.5 mph 86% 0.00 in 0.0 W/m2 CLR
09:19 79.2 °F 74.3 °F 30.00 in SSW 6.9 mph 6.9 mph 85% 0.00 in 0.0 W/m2 CLR
09:24 79.4 °F 74.5 °F 30.00 in WNW 6.0 mph 6.0 mph 85% 0.00 in 0.0 W/m2 CLR
09:29 79.9 °F 74.6 °F 30.00 in SSW 5.0 mph 5.0 mph 84% 0.00 in 0.0 W/m2 CLR
Lake Mary, FL, USA
Compliments of Weather Underground - 1.25 mb